createdAt,value
2023-04-18T00:00:40.677Z,454.00
2023-04-18T00:01:40.734Z,454.00
2023-04-18T00:02:40.924Z,455.00
2023-04-18T00:03:40.947Z,453.00
2023-04-18T00:04:40.856Z,456.00
2023-04-18T00:05:40.857Z,456.00
2023-04-18T00:06:40.938Z,454.00
2023-04-18T00:07:40.981Z,456.00
2023-04-18T00:08:40.974Z,455.00
2023-04-18T00:09:41.064Z,454.00
2023-04-18T00:10:41.088Z,454.00
2023-04-18T00:11:41.098Z,454.00
2023-04-18T00:12:41.173Z,454.00
2023-04-18T00:13:41.171Z,456.00
2023-04-18T00:14:41.258Z,458.00
2023-04-18T00:15:41.275Z,462.00
2023-04-18T00:16:41.406Z,464.00
2023-04-18T00:17:41.479Z,461.00
2023-04-18T00:18:41.402Z,461.00
2023-04-18T00:19:41.449Z,460.00
2023-04-18T00:20:41.506Z,460.00
2023-04-18T00:21:41.546Z,460.00
2023-04-18T00:22:41.581Z,457.00
2023-04-18T00:23:41.635Z,455.00
2023-04-18T00:24:41.681Z,455.00
2023-04-18T00:25:42.539Z,455.00
2023-04-18T00:26:41.697Z,456.00
2023-04-18T00:27:41.749Z,457.00
2023-04-18T00:28:41.726Z,458.00
2023-04-18T00:29:41.699Z,457.00
2023-04-18T00:30:41.768Z,454.00
2023-04-18T00:31:41.804Z,454.00
2023-04-18T00:32:41.783Z,455.00
2023-04-18T00:33:41.773Z,455.00
2023-04-18T00:34:41.754Z,455.00
2023-04-18T00:35:41.831Z,456.00
2023-04-18T00:36:41.865Z,455.00
2023-04-18T00:37:41.941Z,457.00
2023-04-18T00:38:41.966Z,458.00
2023-04-18T00:39:42.005Z,461.00
2023-04-18T00:40:42.024Z,460.00
2023-04-18T00:41:42.098Z,457.00
2023-04-18T00:42:42.156Z,459.00
2023-04-18T00:43:42.261Z,460.00
2023-04-18T00:44:42.262Z,460.00
2023-04-18T00:45:42.364Z,461.00
2023-04-18T00:46:42.390Z,461.00
2023-04-18T00:47:42.534Z,461.00
2023-04-18T00:48:42.490Z,463.00
2023-04-18T00:49:42.536Z,465.00
2023-04-18T00:50:42.627Z,464.00
2023-04-18T00:51:42.686Z,463.00
2023-04-18T00:52:42.745Z,463.00
2023-04-18T00:53:42.753Z,461.00
2023-04-18T00:54:42.773Z,461.00
2023-04-18T00:55:42.836Z,460.00
2023-04-18T00:56:42.904Z,458.00
2023-04-18T00:57:42.933Z,459.00
2023-04-18T00:58:43.007Z,458.00
2023-04-18T00:59:43.065Z,456.00
2023-04-18T01:00:43.157Z,456.00
2023-04-18T01:01:43.306Z,456.00
2023-04-18T01:02:43.381Z,456.00
2023-04-18T01:03:43.516Z,455.00
2023-04-18T01:04:43.398Z,457.00
2023-04-18T01:05:43.405Z,458.00
2023-04-18T01:06:43.454Z,456.00
2023-04-18T01:07:43.470Z,455.00
2023-04-18T01:08:43.506Z,455.00
2023-04-18T01:09:43.587Z,454.00
2023-04-18T01:10:43.596Z,453.00
2023-04-18T01:11:43.690Z,450.00
2023-04-18T01:12:43.678Z,448.00
2023-04-18T01:13:43.666Z,447.00
2023-04-18T01:14:43.683Z,449.00
2023-04-18T01:15:43.824Z,451.00
2023-04-18T01:16:43.733Z,449.00
2023-04-18T01:17:43.830Z,450.00
2023-04-18T01:18:43.790Z,450.00
2023-04-18T01:19:43.852Z,450.00
2023-04-18T01:20:43.886Z,450.00
2023-04-18T01:21:44.025Z,449.00
2023-04-18T01:22:44.049Z,450.00
2023-04-18T01:23:44.030Z,449.00
2023-04-18T01:24:44.118Z,451.00
2023-04-18T01:25:44.164Z,450.00
2023-04-18T01:26:44.203Z,452.00
2023-04-18T01:27:44.215Z,453.00
2023-04-18T01:28:44.228Z,453.00
2023-04-18T01:29:44.299Z,453.00
2023-04-18T01:30:44.291Z,451.00
2023-04-18T01:31:44.399Z,449.00
2023-04-18T01:32:44.388Z,450.00
2023-04-18T01:33:44.454Z,450.00
2023-04-18T01:34:44.482Z,453.00
2023-04-18T01:35:44.522Z,453.00
2023-04-18T01:36:44.603Z,454.00
2023-04-18T01:37:44.594Z,456.00
2023-04-18T01:38:44.639Z,456.00
2023-04-18T01:39:44.659Z,455.00
2023-04-18T01:40:44.658Z,453.00
2023-04-18T01:41:44.661Z,451.00
2023-04-18T01:42:44.737Z,454.00
2023-04-18T01:43:44.740Z,458.00
2023-04-18T01:44:44.734Z,459.00
2023-04-18T01:45:44.777Z,459.00
2023-04-18T01:46:44.800Z,461.00
2023-04-18T01:47:44.958Z,459.00
2023-04-18T01:48:44.871Z,458.00
2023-04-18T01:49:44.986Z,456.00
2023-04-18T01:50:44.991Z,456.00
2023-04-18T01:51:45.044Z,455.00
2023-04-18T01:52:45.125Z,454.00
2023-04-18T01:53:45.127Z,455.00
2023-04-18T01:54:45.177Z,457.00
2023-04-18T01:55:45.225Z,457.00
2023-04-18T01:56:45.295Z,457.00
2023-04-18T01:57:45.310Z,457.00
2023-04-18T01:58:45.362Z,457.00
2023-04-18T01:59:45.390Z,458.00
2023-04-18T02:00:45.507Z,459.00
2023-04-18T02:01:45.604Z,459.00
2023-04-18T02:02:46.159Z,457.00
2023-04-18T02:03:45.853Z,457.00
2023-04-18T02:04:45.719Z,457.00
2023-04-18T02:05:45.714Z,456.00
2023-04-18T02:06:45.764Z,456.00
2023-04-18T02:07:45.865Z,455.00
2023-04-18T02:08:45.875Z,455.00
2023-04-18T02:09:45.899Z,455.00
2023-04-18T02:10:45.998Z,453.00
2023-04-18T02:11:46.062Z,450.00
2023-04-18T02:12:46.137Z,449.00
2023-04-18T02:13:46.126Z,448.00
2023-04-18T02:14:46.189Z,451.00
2023-04-18T02:15:46.229Z,452.00
2023-04-18T02:16:46.413Z,452.00
2023-04-18T02:17:46.325Z,456.00
2023-04-18T02:18:46.310Z,456.00
2023-04-18T02:19:46.351Z,453.00
2023-04-18T02:20:46.412Z,451.00
2023-04-18T02:21:46.437Z,452.00
2023-04-18T02:22:46.478Z,455.00
2023-04-18T02:23:46.562Z,455.00
2023-04-18T02:24:46.506Z,457.00
2023-04-18T02:25:46.569Z,457.00
2023-04-18T02:26:46.608Z,455.00
2023-04-18T02:27:46.681Z,456.00
2023-04-18T02:28:46.689Z,456.00
2023-04-18T02:29:46.747Z,455.00
2023-04-18T02:30:46.744Z,454.00
2023-04-18T02:31:46.852Z,454.00
2023-04-18T02:32:46.904Z,455.00
2023-04-18T02:33:46.858Z,454.00
2023-04-18T02:34:46.925Z,454.00
2023-04-18T02:35:46.943Z,453.00
2023-04-18T02:36:46.957Z,452.00
2023-04-18T02:37:47.009Z,452.00
2023-04-18T02:38:47.019Z,452.00
2023-04-18T02:39:47.015Z,452.00
2023-04-18T02:40:47.066Z,452.00
2023-04-18T02:41:47.139Z,449.00
2023-04-18T02:42:47.144Z,446.00
2023-04-18T02:43:47.139Z,444.00
2023-04-18T02:44:47.141Z,447.00
2023-04-18T02:45:47.206Z,447.00
2023-04-18T02:46:47.171Z,448.00
2023-04-18T02:47:55.182Z,450.00
2023-04-18T02:48:48.218Z,452.00
2023-04-18T02:49:47.217Z,459.00
2023-04-18T02:50:47.205Z,460.00
2023-04-18T02:51:47.205Z,458.00
2023-04-18T02:52:47.154Z,460.00
2023-04-18T02:53:47.169Z,460.00
2023-04-18T02:54:47.118Z,459.00
2023-04-18T02:55:47.158Z,457.00
2023-04-18T02:56:47.124Z,457.00
2023-04-18T02:57:47.127Z,460.00
2023-04-18T02:58:47.098Z,459.00
2023-04-18T02:59:47.105Z,457.00
2023-04-18T03:00:47.111Z,456.00
2023-04-18T03:01:47.162Z,456.00
2023-04-18T03:02:47.156Z,453.00
2023-04-18T03:03:47.178Z,454.00
2023-04-18T03:04:47.172Z,454.00
2023-04-18T03:05:47.145Z,456.00
2023-04-18T03:06:47.145Z,457.00
2023-04-18T03:07:47.163Z,456.00
2023-04-18T03:08:47.155Z,456.00
2023-04-18T03:09:47.166Z,456.00
2023-04-18T03:10:47.191Z,456.00
2023-04-18T03:11:47.181Z,456.00
2023-04-18T03:12:47.183Z,455.00
2023-04-18T03:13:47.201Z,455.00
2023-04-18T03:14:47.249Z,456.00
2023-04-18T03:15:47.288Z,455.00
2023-04-18T03:16:47.323Z,455.00
2023-04-18T03:17:47.488Z,456.00
2023-04-18T03:18:47.392Z,457.00
2023-04-18T03:19:47.372Z,457.00
2023-04-18T03:20:47.411Z,457.00
2023-04-18T03:21:47.460Z,458.00
2023-04-18T03:22:47.486Z,459.00
2023-04-18T03:23:47.515Z,459.00
2023-04-18T03:24:47.649Z,458.00
2023-04-18T03:25:47.694Z,456.00
2023-04-18T03:26:47.685Z,458.00
2023-04-18T03:27:47.786Z,458.00
2023-04-18T03:28:47.705Z,459.00
2023-04-18T03:29:47.759Z,458.00
2023-04-18T03:30:47.818Z,459.00
2023-04-18T03:31:47.877Z,459.00
2023-04-18T03:32:48.023Z,461.00
2023-04-18T03:33:47.998Z,464.00
2023-04-18T03:34:48.056Z,465.00
2023-04-18T03:35:48.054Z,466.00
2023-04-18T03:36:48.407Z,466.00
2023-04-18T03:37:48.074Z,463.00
2023-04-18T03:38:48.083Z,459.00
2023-04-18T03:39:48.105Z,458.00
2023-04-18T03:40:48.146Z,456.00
2023-04-18T03:41:48.171Z,456.00
2023-04-18T03:42:48.232Z,456.00
2023-04-18T03:43:48.275Z,458.00
2023-04-18T03:44:48.275Z,458.00
2023-04-18T03:45:48.440Z,458.00
2023-04-18T03:46:48.452Z,458.00
2023-04-18T03:47:48.589Z,460.00
2023-04-18T03:48:48.479Z,460.00
2023-04-18T03:49:48.518Z,459.00
2023-04-18T03:50:48.531Z,460.00
2023-04-18T03:51:48.630Z,460.00
2023-04-18T03:52:48.700Z,459.00
2023-04-18T03:53:48.813Z,458.00
2023-04-18T03:54:48.833Z,458.00
2023-04-18T03:55:48.856Z,457.00
2023-04-18T03:56:48.979Z,457.00
2023-04-18T03:57:49.043Z,460.00
2023-04-18T03:58:49.060Z,462.00
2023-04-18T03:59:49.149Z,462.00
2023-04-18T04:00:49.262Z,463.00
2023-04-18T04:01:49.287Z,466.00
2023-04-18T04:02:49.418Z,470.00
2023-04-18T04:03:49.564Z,471.00
2023-04-18T04:04:49.435Z,471.00
2023-04-18T04:05:49.451Z,469.00
2023-04-18T04:06:49.600Z,469.00
2023-04-18T04:07:49.660Z,469.00
2023-04-18T04:08:49.631Z,467.00
2023-04-18T04:09:49.692Z,466.00
2023-04-18T04:10:49.675Z,466.00
2023-04-18T04:11:49.640Z,465.00
2023-04-18T04:12:49.734Z,466.00
2023-04-18T04:13:49.767Z,466.00
2023-04-18T04:14:49.824Z,468.00
2023-04-18T04:15:49.901Z,465.00
2023-04-18T04:16:50.128Z,464.00
2023-04-18T04:17:50.040Z,464.00
2023-04-18T04:18:50.046Z,465.00
2023-04-18T04:19:51.047Z,465.00
2023-04-18T04:20:50.214Z,463.00
2023-04-18T04:21:50.285Z,465.00
2023-04-18T04:22:50.318Z,469.00
2023-04-18T04:23:50.331Z,467.00
2023-04-18T04:24:50.463Z,465.00
2023-04-18T04:25:50.458Z,465.00
2023-04-18T04:26:50.533Z,463.00
2023-04-18T04:27:50.570Z,463.00
2023-04-18T04:28:50.666Z,465.00
2023-04-18T04:29:50.680Z,466.00
2023-04-18T04:30:50.831Z,465.00
2023-04-18T04:31:50.888Z,467.00
2023-04-18T04:32:50.906Z,469.00
2023-04-18T04:33:50.930Z,465.00
2023-04-18T04:34:50.988Z,463.00
2023-04-18T04:35:51.051Z,464.00
2023-04-18T04:36:51.122Z,467.00
2023-04-18T04:37:51.163Z,466.00
2023-04-18T04:38:51.218Z,466.00
2023-04-18T04:39:51.281Z,464.00
2023-04-18T04:40:51.273Z,461.00
2023-04-18T04:41:51.340Z,459.00
2023-04-18T04:42:51.427Z,457.00
2023-04-18T04:43:51.495Z,457.00
2023-04-18T04:44:51.538Z,457.00
2023-04-18T04:45:51.746Z,456.00
2023-04-18T04:46:51.615Z,456.00
2023-04-18T04:47:51.700Z,456.00
2023-04-18T04:48:51.750Z,458.00
2023-04-18T04:49:51.837Z,458.00
2023-04-18T04:50:51.865Z,459.00
2023-04-18T04:51:51.970Z,458.00
2023-04-18T04:52:52.011Z,459.00
2023-04-18T04:53:52.076Z,459.00
2023-04-18T04:54:52.089Z,461.00
2023-04-18T04:55:52.177Z,465.00
2023-04-18T04:56:52.216Z,467.00
2023-04-18T04:57:52.258Z,468.00
2023-04-18T04:58:52.264Z,468.00
2023-04-18T04:59:52.308Z,469.00
2023-04-18T05:02:21.336Z,459.00
2023-04-18T05:03:12.663Z,459.00
2023-04-18T05:04:12.565Z,462.00
2023-04-18T05:05:12.127Z,461.00
2023-04-18T05:06:12.120Z,461.00
2023-04-18T05:07:12.116Z,464.00
2023-04-18T05:08:12.202Z,466.00
2023-04-18T05:09:12.098Z,467.00
2023-04-18T05:10:12.369Z,468.00
2023-04-18T05:11:12.062Z,467.00
2023-04-18T05:12:12.064Z,465.00
2023-04-18T05:13:12.093Z,464.00
2023-04-18T05:14:12.256Z,464.00
2023-04-18T05:15:12.100Z,464.00
2023-04-18T05:16:12.096Z,463.00
2023-04-18T05:17:12.003Z,463.00
2023-04-18T05:18:12.051Z,465.00
2023-04-18T05:19:12.037Z,465.00
2023-04-18T05:20:12.036Z,467.00
2023-04-18T05:21:11.985Z,469.00
2023-04-18T05:22:12.021Z,469.00
2023-04-18T05:23:11.993Z,471.00
2023-04-18T05:24:12.128Z,470.00
2023-04-18T05:25:11.961Z,471.00
2023-04-18T05:26:12.023Z,472.00
2023-04-18T05:27:11.971Z,470.00
2023-04-18T05:28:12.004Z,471.00
2023-04-18T05:29:12.018Z,471.00
2023-04-18T05:30:12.027Z,471.00
2023-04-18T05:31:12.076Z,470.00
2023-04-18T05:32:11.954Z,470.00
2023-04-18T05:33:12.122Z,470.00
2023-04-18T05:35:12.325Z,470.00
2023-04-18T05:36:12.251Z,472.00
2023-04-18T05:37:12.561Z,474.00
2023-04-18T05:38:12.680Z,474.00
2023-04-18T05:39:12.370Z,472.00
2023-04-18T05:40:12.561Z,472.00
2023-04-18T05:41:12.464Z,472.00
2023-04-18T05:42:12.629Z,471.00
2023-04-18T05:43:12.639Z,469.00
2023-04-18T05:44:12.822Z,468.00
2023-04-18T05:45:12.704Z,465.00
2023-04-18T05:47:32.573Z,457.00
2023-04-18T05:48:32.472Z,455.00
2023-04-18T05:49:32.488Z,452.00
2023-04-18T05:50:32.272Z,451.00
2023-04-18T05:51:32.247Z,451.00
2023-04-18T05:52:32.226Z,454.00
2023-04-18T05:53:32.466Z,453.00
2023-04-18T05:54:32.196Z,453.00
2023-04-18T05:55:32.222Z,457.00
2023-04-18T05:56:32.215Z,459.00
2023-04-18T05:57:32.171Z,460.00
2023-04-18T05:58:32.261Z,462.00
2023-04-18T05:59:32.184Z,466.00
2023-04-18T06:00:32.173Z,466.00
2023-04-18T06:01:32.218Z,470.00
2023-04-18T06:02:32.409Z,471.00
2023-04-18T06:03:32.433Z,472.00
2023-04-18T06:04:32.268Z,473.00
2023-04-18T06:05:32.277Z,471.00
2023-04-18T06:06:32.109Z,469.00
2023-04-18T06:07:32.141Z,472.00
2023-04-18T06:08:32.220Z,474.00
2023-04-18T06:09:32.107Z,474.00
2023-04-18T06:10:32.120Z,476.00
2023-04-18T06:11:32.110Z,474.00
2023-04-18T06:12:32.181Z,474.00
2023-04-18T06:13:32.118Z,475.00
2023-04-18T06:14:32.087Z,474.00
2023-04-18T06:15:32.075Z,475.00
2023-04-18T06:16:32.115Z,477.00
2023-04-18T06:17:32.085Z,481.00
2023-04-18T06:18:33.511Z,477.00
2023-04-18T06:19:32.053Z,475.00
2023-04-18T06:20:32.050Z,474.00
2023-04-18T06:21:32.104Z,473.00
2023-04-18T06:22:32.035Z,474.00
2023-04-18T06:23:32.507Z,473.00
2023-04-18T06:24:31.996Z,472.00
2023-04-18T06:25:32.098Z,471.00
2023-04-18T06:26:32.023Z,471.00
2023-04-18T06:27:32.190Z,473.00
2023-04-18T06:28:32.009Z,474.00
2023-04-18T06:29:32.047Z,473.00
2023-04-18T06:30:31.988Z,476.00
2023-04-18T06:31:32.057Z,479.00
2023-04-18T06:32:31.975Z,480.00
2023-04-18T06:33:32.054Z,482.00
2023-04-18T06:34:32.028Z,480.00
2023-04-18T06:35:31.970Z,481.00
2023-04-18T06:36:31.970Z,480.00
2023-04-18T06:37:31.976Z,479.00
2023-04-18T06:38:31.986Z,479.00
2023-04-18T06:39:32.001Z,476.00
2023-04-18T06:40:32.097Z,475.00
2023-04-18T06:41:31.914Z,475.00
2023-04-18T06:42:31.991Z,473.00
2023-04-18T06:43:31.871Z,476.00
2023-04-18T06:44:31.989Z,477.00
2023-04-18T06:45:32.252Z,478.00
2023-04-18T06:46:31.976Z,478.00
2023-04-18T06:47:43.156Z,478.00
2023-04-18T06:48:32.066Z,478.00
2023-04-18T06:49:33.210Z,479.00
2023-04-18T06:50:31.982Z,478.00
2023-04-18T06:51:31.964Z,478.00
2023-04-18T06:52:31.981Z,477.00
2023-04-18T06:53:32.041Z,478.00
2023-04-18T06:54:32.985Z,479.00
2023-04-18T06:55:32.161Z,479.00
2023-04-18T06:56:33.466Z,479.00
2023-04-18T06:57:32.366Z,479.00
2023-04-18T06:58:32.235Z,481.00
2023-04-18T06:59:32.659Z,482.00
2023-04-18T07:00:32.209Z,481.00
2023-04-18T07:01:32.245Z,483.00
2023-04-18T07:02:32.321Z,481.00
2023-04-18T07:03:32.275Z,481.00
2023-04-18T07:04:32.496Z,479.00
2023-04-18T07:05:32.193Z,480.00
2023-04-18T07:06:32.171Z,478.00
2023-04-18T07:07:32.150Z,478.00
2023-04-18T07:08:32.131Z,479.00
2023-04-18T07:09:32.552Z,479.00
2023-04-18T07:10:32.856Z,478.00
2023-04-18T07:11:32.121Z,477.00
2023-04-18T07:12:32.421Z,477.00
2023-04-18T07:13:32.069Z,475.00
2023-04-18T07:14:34.195Z,473.00
2023-04-18T07:15:32.086Z,473.00
2023-04-18T07:16:32.433Z,473.00
2023-04-18T07:17:32.113Z,473.00
2023-04-18T07:18:38.106Z,473.00
2023-04-18T07:19:33.523Z,472.00
2023-04-18T07:20:32.184Z,471.00
2023-04-18T07:21:32.029Z,470.00
2023-04-18T07:22:32.089Z,470.00
2023-04-18T07:23:32.090Z,469.00
2023-04-18T07:24:32.090Z,471.00
2023-04-18T07:25:32.062Z,473.00
2023-04-18T07:26:32.210Z,472.00
2023-04-18T07:27:31.975Z,468.00
2023-04-18T07:28:32.009Z,464.00
2023-04-18T07:29:32.538Z,463.00
2023-04-18T07:30:32.070Z,462.00
2023-04-18T07:31:32.040Z,462.00
2023-04-18T07:32:31.978Z,465.00
2023-04-18T07:33:31.959Z,466.00
2023-04-18T07:34:32.564Z,470.00
2023-04-18T07:35:32.075Z,469.00
2023-04-18T07:36:32.175Z,469.00
2023-04-18T07:37:32.242Z,467.00
2023-04-18T07:38:32.379Z,466.00
2023-04-18T07:39:32.506Z,464.00
2023-04-18T07:40:32.370Z,462.00
2023-04-18T07:41:32.426Z,461.00
2023-04-18T07:42:32.539Z,461.00
2023-04-18T07:43:32.701Z,463.00
2023-04-18T07:44:33.028Z,464.00
2023-04-18T07:45:32.553Z,466.00
2023-04-18T07:46:32.700Z,465.00
2023-04-18T07:47:33.457Z,465.00
2023-04-18T07:48:32.615Z,463.00
2023-04-18T07:49:32.682Z,461.00
2023-04-18T07:50:32.693Z,460.00
2023-04-18T07:51:32.766Z,463.00
2023-04-18T07:52:32.765Z,572.00
2023-04-18T07:53:32.760Z,552.00
2023-04-18T07:54:32.830Z,591.00
2023-04-18T07:55:32.834Z,555.00
2023-04-18T07:56:32.888Z,588.00
2023-04-18T07:57:33.237Z,594.00
2023-04-18T07:58:33.070Z,591.00
2023-04-18T07:59:33.031Z,489.00
2023-04-18T08:00:33.086Z,490.00
2023-04-18T08:01:33.178Z,501.00
2023-04-18T08:02:33.302Z,513.00
2023-04-18T08:03:33.289Z,516.00
2023-04-18T08:04:33.318Z,519.00
2023-04-18T08:05:33.338Z,517.00
2023-04-18T08:06:33.316Z,510.00
2023-04-18T08:07:33.409Z,512.00
2023-04-18T08:08:33.381Z,505.00
2023-04-18T08:09:33.624Z,506.00
2023-04-18T08:10:33.437Z,502.00
2023-04-18T08:11:33.453Z,500.00
2023-04-18T08:12:33.468Z,488.00
2023-04-18T08:13:33.477Z,485.00
2023-04-18T08:14:33.546Z,483.00
2023-04-18T08:15:33.545Z,478.00
2023-04-18T08:16:33.642Z,477.00
2023-04-18T08:17:33.573Z,478.00
2023-04-18T08:18:33.712Z,479.00
2023-04-18T08:19:33.651Z,476.00
2023-04-18T08:20:33.675Z,473.00
2023-04-18T08:21:33.762Z,470.00
2023-04-18T08:22:33.752Z,469.00
2023-04-18T08:23:33.698Z,473.00
2023-04-18T08:24:33.776Z,468.00
2023-04-18T08:25:33.809Z,465.00
2023-04-18T08:26:34.138Z,462.00
2023-04-18T08:27:33.879Z,463.00
2023-04-18T08:28:33.879Z,463.00
2023-04-18T08:29:33.953Z,463.00
2023-04-18T08:30:33.988Z,463.00
2023-04-18T08:31:34.196Z,462.00
2023-04-18T08:32:34.050Z,459.00
2023-04-18T08:33:34.030Z,459.00
2023-04-18T08:34:34.634Z,458.00
2023-04-18T08:35:34.033Z,458.00
2023-04-18T08:36:34.031Z,456.00
2023-04-18T08:37:34.071Z,454.00
2023-04-18T08:38:34.115Z,451.00
2023-04-18T08:39:34.163Z,451.00
2023-04-18T08:40:34.167Z,452.00
2023-04-18T08:41:34.177Z,454.00
2023-04-18T08:42:34.411Z,458.00
2023-04-18T08:43:34.247Z,457.00
2023-04-18T08:44:34.511Z,455.00
2023-04-18T08:45:34.476Z,457.00
2023-04-18T08:46:34.397Z,454.00
2023-04-18T08:47:34.454Z,452.00
2023-04-18T08:48:34.460Z,450.00
2023-04-18T08:49:34.529Z,452.00
2023-04-18T08:50:34.619Z,451.00
2023-04-18T08:51:34.604Z,448.00
2023-04-18T08:52:34.662Z,449.00
2023-04-18T08:53:34.688Z,447.00
2023-04-18T08:54:35.042Z,448.00
2023-04-18T08:55:34.746Z,446.00
2023-04-18T08:56:34.780Z,449.00
2023-04-18T08:57:34.816Z,450.00
2023-04-18T08:58:34.975Z,448.00
2023-04-18T08:59:35.069Z,449.00
2023-04-18T09:00:34.856Z,447.00
2023-04-18T09:01:34.973Z,446.00
2023-04-18T09:02:35.252Z,447.00
2023-04-18T09:03:34.976Z,447.00
2023-04-18T09:04:34.997Z,445.00
2023-04-18T09:05:35.055Z,445.00
2023-04-18T09:06:35.020Z,441.00
2023-04-18T09:07:34.999Z,441.00
2023-04-18T09:08:35.107Z,440.00
2023-04-18T09:09:35.142Z,444.00
2023-04-18T09:10:35.256Z,444.00
2023-04-18T09:11:35.244Z,442.00
2023-04-18T09:12:36.050Z,444.00
2023-04-18T09:13:35.267Z,441.00
2023-04-18T09:14:35.269Z,432.00
2023-04-18T09:15:35.377Z,434.00
2023-04-18T09:16:35.494Z,435.00
2023-04-18T09:17:35.476Z,435.00
2023-04-18T09:18:35.450Z,434.00
2023-04-18T09:19:35.490Z,437.00
2023-04-18T09:20:35.605Z,440.00
2023-04-18T09:21:35.538Z,439.00
2023-04-18T09:22:35.601Z,437.00
2023-04-18T09:23:35.614Z,439.00
2023-04-18T09:24:35.639Z,441.00
2023-04-18T09:25:36.339Z,444.00
2023-04-18T09:26:35.719Z,445.00
2023-04-18T09:27:35.820Z,443.00
2023-04-18T09:28:35.736Z,439.00
2023-04-18T09:29:35.734Z,438.00
2023-04-18T09:30:36.057Z,444.00
2023-04-18T09:31:35.898Z,433.00
2023-04-18T09:32:35.994Z,432.00
2023-04-18T09:33:35.935Z,433.00
2023-04-18T09:34:36.031Z,433.00
2023-04-18T09:35:36.683Z,435.00
2023-04-18T09:36:36.155Z,433.00
2023-04-18T09:37:36.034Z,434.00
2023-04-18T09:38:36.115Z,434.00
2023-04-18T09:39:36.120Z,435.00
2023-04-18T09:40:36.644Z,433.00
2023-04-18T09:41:36.225Z,433.00
2023-04-18T09:42:36.211Z,434.00
2023-04-18T09:43:36.245Z,437.00
2023-04-18T09:44:36.294Z,437.00
2023-04-18T09:45:36.657Z,437.00
2023-04-18T09:46:36.661Z,438.00
2023-04-18T09:47:36.685Z,438.00
2023-04-18T09:48:36.608Z,437.00
2023-04-18T09:49:36.541Z,437.00
2023-04-18T09:50:36.887Z,431.00
2023-04-18T09:51:36.572Z,430.00
2023-04-18T09:52:36.568Z,433.00
2023-04-18T09:53:37.069Z,432.00
2023-04-18T09:54:36.652Z,430.00
2023-04-18T09:55:37.816Z,431.00
2023-04-18T09:56:36.662Z,433.00
2023-04-18T09:57:36.661Z,434.00
2023-04-18T09:58:36.706Z,437.00
2023-04-18T09:59:36.705Z,438.00
2023-04-18T10:00:37.092Z,437.00
2023-04-18T10:01:36.892Z,437.00
2023-04-18T10:02:36.848Z,436.00
2023-04-18T10:03:36.850Z,434.00
2023-04-18T10:04:36.993Z,436.00
2023-04-18T10:05:37.151Z,437.00
2023-04-18T10:06:36.891Z,436.00
2023-04-18T10:07:36.913Z,437.00
2023-04-18T10:08:36.972Z,435.00
2023-04-18T10:09:44.960Z,433.00
2023-04-18T10:10:38.826Z,435.00
2023-04-18T10:11:36.959Z,434.00
2023-04-18T10:12:36.886Z,435.00
2023-04-18T10:13:36.975Z,435.00
2023-04-18T10:14:36.884Z,437.00
2023-04-18T10:15:37.132Z,436.00
2023-04-18T10:16:37.062Z,436.00
2023-04-18T10:17:37.064Z,436.00
2023-04-18T10:18:37.080Z,437.00
2023-04-18T10:19:37.024Z,441.00
2023-04-18T10:20:37.064Z,442.00
2023-04-18T10:21:37.020Z,438.00
2023-04-18T10:22:37.028Z,437.00
2023-04-18T10:23:37.181Z,436.00
2023-04-18T10:24:37.162Z,436.00
2023-04-18T10:25:37.769Z,434.00
2023-04-18T10:26:37.191Z,435.00
2023-04-18T10:27:37.296Z,438.00
2023-04-18T10:28:38.548Z,439.00
2023-04-18T10:29:37.266Z,440.00
2023-04-18T10:30:37.607Z,440.00
2023-04-18T10:31:37.320Z,440.00
2023-04-18T10:32:37.330Z,440.00
2023-04-18T10:33:41.079Z,440.00
2023-04-18T10:34:38.293Z,441.00
2023-04-18T10:35:39.249Z,439.00
2023-04-18T10:36:37.326Z,438.00
2023-04-18T10:37:37.313Z,438.00
2023-04-18T10:38:37.290Z,438.00
2023-04-18T10:39:37.262Z,437.00
2023-04-18T10:40:37.766Z,434.00
2023-04-18T10:41:37.308Z,437.00
2023-04-18T10:42:37.312Z,437.00
2023-04-18T10:43:37.240Z,436.00
2023-04-18T10:44:37.231Z,435.00
2023-04-18T10:45:37.246Z,439.00
2023-04-18T10:46:37.730Z,438.00
2023-04-18T10:47:37.332Z,436.00
2023-04-18T10:48:38.630Z,434.00
2023-04-18T10:49:37.196Z,436.00
2023-04-18T10:50:37.630Z,437.00
2023-04-18T10:51:37.157Z,436.00
2023-04-18T10:52:37.173Z,436.00
2023-04-18T10:53:37.267Z,432.00
2023-04-18T10:54:37.148Z,431.00
2023-04-18T10:55:37.167Z,432.00
2023-04-18T10:56:38.139Z,435.00
2023-04-18T10:57:37.571Z,433.00
2023-04-18T10:58:44.902Z,432.00
2023-04-18T10:59:37.504Z,434.00
2023-04-18T11:00:37.184Z,431.00
2023-04-18T11:01:37.848Z,431.00
2023-04-18T11:02:37.333Z,431.00
2023-04-18T11:03:37.256Z,428.00
2023-04-18T11:04:37.194Z,429.00
2023-04-18T11:05:37.111Z,431.00
2023-04-18T11:06:37.147Z,432.00
2023-04-18T11:07:37.052Z,433.00
2023-04-18T11:08:37.138Z,434.00
2023-04-18T11:09:37.201Z,432.00
2023-04-18T11:10:37.068Z,432.00
2023-04-18T11:11:37.095Z,429.00
2023-04-18T11:12:37.103Z,429.00
2023-04-18T11:13:37.006Z,429.00
2023-04-18T11:14:37.070Z,432.00
2023-04-18T11:15:37.072Z,430.00
2023-04-18T11:16:37.412Z,430.00
2023-04-18T11:17:37.256Z,428.00
2023-04-18T11:18:37.217Z,428.00
2023-04-18T11:19:37.204Z,431.00
2023-04-18T11:20:37.312Z,431.00
2023-04-18T11:21:37.645Z,433.00
2023-04-18T11:22:37.263Z,426.00
2023-04-18T11:23:37.311Z,427.00
2023-04-18T11:24:37.269Z,429.00
2023-04-18T11:25:37.581Z,429.00
2023-04-18T11:26:37.622Z,448.00
2023-04-18T11:27:37.788Z,448.00
2023-04-18T11:28:37.404Z,435.00
2023-04-18T11:29:37.533Z,431.00
2023-04-18T11:30:37.752Z,432.00
2023-04-18T11:31:38.181Z,432.00
2023-04-18T11:32:39.018Z,426.00
2023-04-18T11:33:38.237Z,425.00
2023-04-18T11:34:38.006Z,426.00
2023-04-18T11:35:37.943Z,421.00
2023-04-18T11:36:38.136Z,423.00
2023-04-18T11:37:37.701Z,426.00
2023-04-18T11:38:37.745Z,427.00
2023-04-18T11:39:37.757Z,428.00
2023-04-18T11:40:37.782Z,428.00
2023-04-18T11:41:38.181Z,424.00
2023-04-18T11:42:37.855Z,424.00
2023-04-18T11:43:37.890Z,428.00
2023-04-18T11:44:37.906Z,434.00
2023-04-18T11:45:37.960Z,436.00
2023-04-18T11:46:38.070Z,434.00
2023-04-18T11:47:37.997Z,437.00
2023-04-18T11:48:38.041Z,435.00
2023-04-18T11:49:37.992Z,433.00
2023-04-18T11:50:38.027Z,431.00
2023-04-18T11:51:38.093Z,429.00
2023-04-18T11:52:38.057Z,429.00
2023-04-18T11:53:38.147Z,428.00
2023-04-18T11:54:38.169Z,428.00
2023-04-18T11:55:38.171Z,433.00
2023-04-18T11:56:38.214Z,431.00
2023-04-18T11:57:38.221Z,432.00
2023-04-18T11:58:38.261Z,433.00
2023-04-18T11:59:38.514Z,434.00
2023-04-18T12:00:38.337Z,432.00
2023-04-18T12:01:38.453Z,428.00
2023-04-18T12:02:38.435Z,427.00
2023-04-18T12:03:38.640Z,430.00
2023-04-18T12:04:38.723Z,426.00
2023-04-18T12:05:38.744Z,424.00
2023-04-18T12:06:38.503Z,427.00
2023-04-18T12:07:38.484Z,423.00
2023-04-18T12:08:38.518Z,421.00
2023-04-18T12:09:38.543Z,422.00
2023-04-18T12:10:38.579Z,422.00
2023-04-18T12:11:38.604Z,420.00
2023-04-18T12:12:38.624Z,421.00
2023-04-18T12:13:38.708Z,422.00
2023-04-18T12:14:38.698Z,421.00
2023-04-18T12:15:38.853Z,419.00
2023-04-18T12:16:38.773Z,417.00
2023-04-18T12:17:38.806Z,424.00
2023-04-18T12:18:38.805Z,422.00
2023-04-18T12:19:38.800Z,422.00
2023-04-18T12:20:38.857Z,420.00
2023-04-18T12:21:38.857Z,421.00
2023-04-18T12:22:38.871Z,427.00
2023-04-18T12:23:38.883Z,421.00
2023-04-18T12:24:38.928Z,419.00
2023-04-18T12:25:38.929Z,418.00
2023-04-18T12:26:39.027Z,420.00
2023-04-18T12:27:39.003Z,420.00
2023-04-18T12:28:39.005Z,423.00
2023-04-18T12:29:39.029Z,425.00
2023-04-18T12:30:39.102Z,426.00
2023-04-18T12:31:39.141Z,427.00
2023-04-18T12:32:39.173Z,430.00